Time;durP1;ratioP1;P1;durP2;ratioP2;P2;SDS_P1;SDS_P2;PMS_P1;PMS_P2;Temp;Humidity;BMP_temperature;BMP_pressure;BME280_temperature;BME280_humidity;BME280_pressure;Samples;Min_cycle;Max_cycle;Signal;HPM_P1;HPM_P2
2022/01/03 00:00:55;;;;;;;8.38;5.75;;;;;;;;;;5003417;28;20878;-56
2022/01/03 00:03:20;;;;;;;6.68;5.28;;;;;;;;;;5019396;28;20687;-56
2022/01/03 00:05:46;;;;;;;7.80;5.22;;;;;;;;;;5018420;28;20186;-56
2022/01/03 00:08:11;;;;;;;4.00;3.70;;;;;;;;;;5021998;28;20195;-56
2022/01/03 00:10:36;;;;;;;4.38;3.78;;;;;;;;;;5025911;28;20181;-57
2022/01/03 00:13:03;;;;;;;3.08;2.80;;;;;;;;;;5022246;28;20193;-57
2022/01/03 00:15:28;;;;;;;4.10;3.05;;;;;;;;;;5010022;28;20282;-59
2022/01/03 00:17:54;;;;;;;3.17;2.85;;;;;;;;;;5017423;28;20300;-57
2022/01/03 00:20:20;;;;;;;3.50;3.20;;;;;;;;;;5000284;28;20261;-56
2022/01/03 00:22:50;;;;;;;3.97;3.25;;;;;;;;;;5018671;28;20274;-56
2022/01/03 00:25:17;;;;;;;3.00;2.70;;;;;;;;;;5021850;28;20206;-56
2022/01/03 00:27:49;;;;;;;3.72;2.63;;;;;;;;;;5019259;28;20175;-56
2022/01/03 00:30:15;;;;;;;2.78;2.58;;;;;;;;;;5019537;28;20202;-56
2022/01/03 00:32:43;;;;;;;2.90;2.70;;;;;;;;;;5025551;28;20184;-56
2022/01/03 00:35:08;;;;;;;2.50;2.30;;;;;;;;;;5024132;28;20261;-56
2022/01/03 00:37:34;;;;;;;2.78;2.58;;;;;;;;;;5021209;28;20277;-56
2022/01/03 00:40:00;;;;;;;2.28;2.17;;;;;;;;;;5017145;28;20183;-55
2022/01/03 00:42:25;;;;;;;5.38;2.83;;;;;;;;;;5018703;28;20788;-56
2022/01/03 00:44:51;;;;;;;3.03;2.72;;;;;;;;;;5020408;28;20178;-56
2022/01/03 00:47:17;;;;;;;2.67;2.47;;;;;;;;;;5017698;28;20190;-56
2022/01/03 00:49:42;;;;;;;2.65;2.45;;;;;;;;;;5014242;28;20273;-56
2022/01/03 00:52:09;;;;;;;3.00;2.08;;;;;;;;;;5015525;28;20875;-56
2022/01/03 00:54:34;;;;;;;3.00;2.75;;;;;;;;;;5016280;28;20202;-55
2022/01/03 00:57:05;;;;;;;8.30;6.47;;;;;;;;;;5011112;28;20187;-55
2022/01/03 00:59:32;;;;;;;7.97;6.10;;;;;;;;;;5017098;28;20166;-55
2022/01/03 01:01:59;;;;;;;8.60;6.85;;;;;;;;;;5017348;28;20197;-55
2022/01/03 01:04:24;;;;;;;10.18;7.15;;;;;;;;;;5020941;28;20182;-56
2022/01/03 01:06:54;;;;;;;5.38;4.78;;;;;;;;;;5020596;28;20179;-56
2022/01/03 01:09:20;;;;;;;4.25;3.67;;;;;;;;;;5024629;28;20206;-56
2022/01/03 01:11:45;;;;;;;8.93;7.18;;;;;;;;;;5024323;28;20745;-56
2022/01/03 01:14:12;;;;;;;8.48;6.95;;;;;;;;;;5014720;28;20183;-56
2022/01/03 01:16:37;;;;;;;6.38;5.63;;;;;;;;;;5016016;28;20278;-57
2022/01/03 01:19:04;;;;;;;14.35;10.27;;;;;;;;;;5019254;28;20711;-56
2022/01/03 01:21:29;;;;;;;18.85;12.82;;;;;;;;;;5015379;28;20244;-56
2022/01/03 01:23:56;;;;;;;20.33;13.88;;;;;;;;;;5017651;28;20182;-56
2022/01/03 01:29:05;;;;;;;16.88;13.18;;;;;;;;;;5019588;28;20216;-56
2022/01/03 01:31:32;;;;;;;18.88;12.07;;;;;;;;;;5009676;28;20716;-56
2022/01/03 01:33:58;;;;;;;11.23;9.18;;;;;;;;;;5018335;28;20174;-57
2022/01/03 01:36:26;;;;;;;14.43;10.50;;;;;;;;;;5020249;28;20177;-57
2022/01/03 01:38:52;;;;;;;12.82;9.32;;;;;;;;;;5023897;28;20656;-56
2022/01/03 01:41:18;;;;;;;11.52;8.65;;;;;;;;;;5012803;28;20217;-56
2022/01/03 01:43:44;;;;;;;13.23;9.77;;;;;;;;;;5016303;28;20228;-56
2022/01/03 01:46:14;;;;;;;8.93;7.03;;;;;;;;;;5018934;28;20182;-57
2022/01/03 01:48:40;;;;;;;8.38;5.40;;;;;;;;;;5018742;28;20206;-56
2022/01/03 01:51:09;;;;;;;3.42;3.22;;;;;;;;;;5012580;28;20572;-56
2022/01/03 01:54:00;;;;;;;2.83;2.63;;;;;;;;;;5016275;28;20199;-56
2022/01/03 01:56:26;;;;;;;1.85;1.75;;;;;;;;;;5020442;28;20654;-57
2022/01/03 01:59:01;;;;;;;2.40;2.20;;;;;;;;;;5023079;28;20183;-56
2022/01/03 02:01:45;;;;;;;2.63;2.30;;;;;;;;;;5020545;28;20295;-56
2022/01/03 02:04:18;;;;;;;2.47;2.28;;;;;;;;;;5015368;28;20198;-56
2022/01/03 02:06:45;;;;;;;2.58;2.10;;;;;;;;;;5017425;28;20266;-56
2022/01/03 02:09:20;;;;;;;2.65;2.55;;;;;;;;;;5016201;28;20209;-57
2022/01/03 02:11:45;;;;;;;2.42;2.20;;;;;;;;;;5017134;28;20174;-56
2022/01/03 02:14:11;;;;;;;3.25;2.47;;;;;;;;;;5018784;28;20175;-56
2022/01/03 02:16:38;;;;;;;2.60;2.40;;;;;;;;;;5015191;28;20205;-57
2022/01/03 02:19:03;;;;;;;2.45;2.10;;;;;;;;;;5022805;28;20202;-55
2022/01/03 02:21:28;;;;;;;2.30;2.10;;;;;;;;;;5021891;28;20242;-55
2022/01/03 02:23:53;;;;;;;1.83;1.73;;;;;;;;;;5016165;28;20182;-55
2022/01/03 02:26:19;;;;;;;2.22;2.13;;;;;;;;;;5016184;28;20182;-56
2022/01/03 02:28:44;;;;;;;2.70;2.45;;;;;;;;;;5016133;28;20639;-56
2022/01/03 02:31:09;;;;;;;2.10;2.00;;;;;;;;;;5023034;28;20190;-56
2022/01/03 02:33:35;;;;;;;2.35;2.15;;;;;;;;;;5014894;28;20266;-55
2022/01/03 02:36:01;;;;;;;1.98;1.88;;;;;;;;;;5021558;28;20652;-55
2022/01/03 02:38:26;;;;;;;2.20;2.05;;;;;;;;;;5014649;28;20175;-56
2022/01/03 02:40:51;;;;;;;4.28;2.15;;;;;;;;;;5024901;28;20183;-56
2022/01/03 02:43:16;;;;;;;1.90;1.80;;;;;;;;;;5014102;28;20182;-55
2022/01/03 02:45:42;;;;;;;2.55;1.88;;;;;;;;;;4997479;28;20193;-56
2022/01/03 02:48:07;;;;;;;3.20;2.30;;;;;;;;;;5020251;28;20216;-55
2022/01/03 02:50:34;;;;;;;2.13;2.00;;;;;;;;;;5016908;28;20179;-56
2022/01/03 02:53:00;;;;;;;1.92;1.83;;;;;;;;;;5023886;28;20296;-56
2022/01/03 02:55:26;;;;;;;2.10;2.00;;;;;;;;;;5026384;28;20270;-56
2022/01/03 02:57:53;;;;;;;2.10;1.95;;;;;;;;;;5013389;28;20171;-56
2022/01/03 03:00:21;;;;;;;1.83;1.73;;;;;;;;;;5018978;28;20545;-56
2022/01/03 03:02:46;;;;;;;2.47;2.25;;;;;;;;;;5021995;28;20194;-57
2022/01/03 03:05:12;;;;;;;6.40;4.55;;;;;;;;;;5019568;28;20194;-55
2022/01/03 03:07:37;;;;;;;8.15;6.20;;;;;;;;;;5019291;28;20610;-56
2022/01/03 03:10:10;;;;;;;12.65;7.18;;;;;;;;;;5020827;28;20233;-56
2022/01/03 03:12:36;;;;;;;20.58;10.75;;;;;;;;;;5013994;28;20175;-55
2022/01/03 03:15:01;;;;;;;9.13;7.00;;;;;;;;;;5022957;28;20599;-56
2022/01/03 03:17:26;;;;;;;9.70;7.85;;;;;;;;;;5023075;28;20170;-55
2022/01/03 03:19:53;;;;;;;10.45;8.55;;;;;;;;;;5019742;28;20186;-56
2022/01/03 03:22:18;;;;;;;12.55;8.15;;;;;;;;;;5017950;28;20236;-56
2022/01/03 03:24:43;;;;;;;16.83;10.02;;;;;;;;;;5016041;28;20171;-56
2022/01/03 03:27:09;;;;;;;13.38;9.27;;;;;;;;;;5018537;28;20189;-55
2022/01/03 03:29:35;;;;;;;15.43;10.95;;;;;;;;;;5018696;28;20209;-56
2022/01/03 03:32:01;;;;;;;27.17;15.70;;;;;;;;;;5022366;28;20222;-55
2022/01/03 03:34:26;;;;;;;30.05;16.75;;;;;;;;;;5029067;28;20588;-56
2022/01/03 03:36:51;;;;;;;20.00;12.35;;;;;;;;;;5022767;28;20261;-56
2022/01/03 03:39:16;;;;;;;20.75;12.25;;;;;;;;;;5019924;28;20189;-55
2022/01/03 03:41:42;;;;;;;17.02;12.00;;;;;;;;;;5017037;28;20615;-56
2022/01/03 03:44:07;;;;;;;7.15;6.40;;;;;;;;;;5012542;28;20213;-55
2022/01/03 03:46:33;;;;;;;8.80;6.28;;;;;;;;;;5023752;28;20217;-56
2022/01/03 03:48:58;;;;;;;6.35;3.92;;;;;;;;;;5017227;28;20229;-55
2022/01/03 03:51:23;;;;;;;2.30;2.10;;;;;;;;;;5018712;28;20213;-55
2022/01/03 03:53:49;;;;;;;1.98;1.83;;;;;;;;;;5017069;28;20199;-55
2022/01/03 03:56:14;;;;;;;2.05;1.95;;;;;;;;;;5018297;28;20207;-57
2022/01/03 03:58:39;;;;;;;2.15;2.05;;;;;;;;;;5017506;28;20181;-55
2022/01/03 04:01:04;;;;;;;3.10;2.90;;;;;;;;;;5022618;28;20660;-55
2022/01/03 04:03:30;;;;;;;4.72;4.32;;;;;;;;;;4998107;28;20241;-57
2022/01/03 04:05:55;;;;;;;6.40;5.80;;;;;;;;;;5010384;28;20183;-56
2022/01/03 04:08:20;;;;;;;11.88;8.35;;;;;;;;;;5004933;28;20660;-56
2022/01/03 04:10:45;;;;;;;10.60;7.43;;;;;;;;;;4998642;28;20495;-56
2022/01/03 04:13:11;;;;;;;5.32;4.80;;;;;;;;;;4999898;28;20171;-55
2022/01/03 04:15:36;;;;;;;5.50;4.97;;;;;;;;;;5023416;28;20707;-56
2022/01/03 04:18:01;;;;;;;8.40;6.30;;;;;;;;;;5016124;28;20175;-56
2022/01/03 04:20:27;;;;;;;7.28;5.70;;;;;;;;;;5023794;28;20182;-56
2022/01/03 04:22:52;;;;;;;12.75;8.68;;;;;;;;;;5021425;28;20742;-55
2022/01/03 04:25:17;;;;;;;14.02;10.32;;;;;;;;;;5019407;28;20171;-55
2022/01/03 04:27:43;;;;;;;19.23;11.68;;;;;;;;;;5021419;28;20547;-55
2022/01/03 04:30:08;;;;;;;16.88;11.18;;;;;;;;;;5018083;28;20210;-55
2022/01/03 04:32:34;;;;;;;18.05;10.82;;;;;;;;;;5017762;28;20186;-56
2022/01/03 04:34:59;;;;;;;12.80;8.50;;;;;;;;;;5021172;28;20316;-55
2022/01/03 04:37:24;;;;;;;16.67;9.73;;;;;;;;;;5022871;28;20761;-55
2022/01/03 04:39:50;;;;;;;12.52;10.30;;;;;;;;;;5014036;28;20562;-57
2022/01/03 04:42:15;;;;;;;13.88;9.10;;;;;;;;;;5014082;28;20212;-56
2022/01/03 04:44:40;;;;;;;11.07;8.20;;;;;;;;;;5012185;28;20179;-56
2022/01/03 04:47:05;;;;;;;17.48;10.68;;;;;;;;;;5021652;28;20172;-56
2022/01/03 04:49:31;;;;;;;17.10;12.13;;;;;;;;;;5022445;28;20230;-56
2022/01/03 04:51:56;;;;;;;15.95;11.93;;;;;;;;;;4998368;28;20529;-56
2022/01/03 04:54:21;;;;;;;21.45;13.43;;;;;;;;;;5017630;28;20352;-56
2022/01/03 04:56:47;;;;;;;23.23;13.88;;;;;;;;;;5014509;28;20163;-55
2022/01/03 04:59:12;;;;;;;21.75;14.38;;;;;;;;;;5027386;28;20242;-55
2022/01/03 05:01:37;;;;;;;20.40;13.40;;;;;;;;;;5019481;28;20183;-55
2022/01/03 05:04:02;;;;;;;26.60;14.32;;;;;;;;;;5015427;28;20175;-55
2022/01/03 05:06:29;;;;;;;23.50;11.95;;;;;;;;;;5014998;28;20193;-55
2022/01/03 05:08:54;;;;;;;16.23;11.15;;;;;;;;;;5020190;28;20778;-55
2022/01/03 05:11:19;;;;;;;17.58;11.68;;;;;;;;;;5019581;28;20338;-55
2022/01/03 05:13:45;;;;;;;22.67;13.15;;;;;;;;;;5016695;28;20273;-55
2022/01/03 05:16:10;;;;;;;27.15;16.63;;;;;;;;;;5018282;28;20182;-56
2022/01/03 05:18:36;;;;;;;34.75;18.73;;;;;;;;;;5018325;28;20671;-56
2022/01/03 05:21:02;;;;;;;31.58;19.25;;;;;;;;;;5012061;28;20222;-56
2022/01/03 05:23:27;;;;;;;31.73;19.38;;;;;;;;;;5019764;28;20664;-56
2022/01/03 05:25:52;;;;;;;38.10;22.13;;;;;;;;;;5024074;28;20642;-56
2022/01/03 05:28:18;;;;;;;39.85;21.33;;;;;;;;;;5009278;28;20186;-57
2022/01/03 05:30:43;;;;;;;46.78;23.50;;;;;;;;;;5015815;28;20191;-56
2022/01/03 05:33:09;;;;;;;43.42;21.77;;;;;;;;;;5018808;28;20182;-56
2022/01/03 05:35:34;;;;;;;42.78;23.13;;;;;;;;;;4998769;28;20182;-56
2022/01/03 05:37:59;;;;;;;48.25;27.55;;;;;;;;;;5020145;28;20596;-55
2022/01/03 05:40:25;;;;;;;53.55;29.52;;;;;;;;;;5015703;28;20182;-56
2022/01/03 05:42:53;;;;;;;40.55;22.45;;;;;;;;;;5019057;28;20205;-56
2022/01/03 05:45:18;;;;;;;40.95;23.60;;;;;;;;;;5017452;28;20189;-56
2022/01/03 05:47:46;;;;;;;51.50;28.67;;;;;;;;;;4996796;28;20182;-56
2022/01/03 05:50:12;;;;;;;38.25;22.50;;;;;;;;;;5022247;28;20209;-56
2022/01/03 05:52:37;;;;;;;33.88;18.25;;;;;;;;;;5021511;28;20178;-56
2022/01/03 05:55:04;;;;;;;31.48;19.15;;;;;;;;;;4995245;28;20691;-56
2022/01/03 05:57:29;;;;;;;39.92;21.48;;;;;;;;;;4997118;28;20595;-56
2022/01/03 05:59:54;;;;;;;33.50;20.50;;;;;;;;;;5009789;28;20191;-56
2022/01/03 06:02:20;;;;;;;32.50;20.33;;;;;;;;;;5016889;28;20182;-56
2022/01/03 06:07:16;;;;;;;36.63;22.67;;;;;;;;;;5018088;28;20178;-55
2022/01/03 06:09:42;;;;;;;40.08;23.92;;;;;;;;;;5007291;28;20218;-56
2022/01/03 06:12:07;;;;;;;38.60;24.23;;;;;;;;;;5012477;28;20719;-56
2022/01/03 06:14:33;;;;;;;41.22;24.90;;;;;;;;;;5011521;28;20201;-56
2022/01/03 06:16:58;;;;;;;46.92;27.65;;;;;;;;;;5015405;28;20854;-56
2022/01/03 06:19:24;;;;;;;41.60;24.70;;;;;;;;;;4999560;28;20188;-57
2022/01/03 06:21:49;;;;;;;53.17;29.20;;;;;;;;;;5020135;28;20225;-56
2022/01/03 06:24:15;;;;;;;53.83;31.92;;;;;;;;;;5017754;28;20269;-56
2022/01/03 06:26:41;;;;;;;51.78;30.88;;;;;;;;;;5026269;28;20220;-56
2022/01/03 06:29:07;;;;;;;56.10;31.95;;;;;;;;;;5014570;28;20246;-55
2022/01/03 06:31:33;;;;;;;56.95;31.13;;;;;;;;;;4990622;28;20203;-55
2022/01/03 06:33:59;;;;;;;51.47;29.83;;;;;;;;;;5026181;28;20181;-56
2022/01/03 06:36:24;;;;;;;59.97;31.80;;;;;;;;;;5016828;28;20186;-56
2022/01/03 06:38:49;;;;;;;57.00;33.10;;;;;;;;;;5015823;28;20178;-57
2022/01/03 06:41:14;;;;;;;49.03;30.25;;;;;;;;;;5017224;28;20190;-55
2022/01/03 06:43:40;;;;;;;52.53;32.13;;;;;;;;;;5016957;28;20218;-55
2022/01/03 06:46:05;;;;;;;59.40;37.35;;;;;;;;;;5015179;28;20186;-56
2022/01/03 06:48:30;;;;;;;63.80;37.65;;;;;;;;;;5008917;28;20316;-56
2022/01/03 06:50:56;;;;;;;58.95;35.00;;;;;;;;;;5020359;28;20632;-56
2022/01/03 06:53:21;;;;;;;64.57;35.20;;;;;;;;;;5022638;28;20195;-55
2022/01/03 06:55:46;;;;;;;60.85;34.65;;;;;;;;;;5015114;28;20175;-55
2022/01/03 06:58:11;;;;;;;56.97;33.08;;;;;;;;;;5014236;28;20185;-56
2022/01/03 07:00:37;;;;;;;61.20;35.33;;;;;;;;;;5016021;28;20540;-56
2022/01/03 07:03:02;;;;;;;58.47;33.20;;;;;;;;;;5021196;28;20183;-56
2022/01/03 07:05:27;;;;;;;57.55;31.98;;;;;;;;;;5020492;28;20175;-56
2022/01/03 07:07:53;;;;;;;56.28;31.88;;;;;;;;;;5012842;28;20185;-57
2022/01/03 07:10:19;;;;;;;49.97;30.02;;;;;;;;;;5023513;28;20277;-56
2022/01/03 07:12:45;;;;;;;62.45;34.63;;;;;;;;;;5010269;28;20171;-55
2022/01/03 07:20:39;;;;;;;53.00;30.45;;;;;;;;;;5015325;28;20236;-55
2022/01/03 07:23:04;;;;;;;57.78;31.67;;;;;;;;;;5017522;28;20179;-55
2022/01/03 07:25:29;;;;;;;41.33;25.13;;;;;;;;;;5019410;28;20190;-56
2022/01/03 07:27:55;;;;;;;42.15;23.63;;;;;;;;;;5023918;28;20715;-56
2022/01/03 07:30:20;;;;;;;40.40;24.13;;;;;;;;;;5015006;28;20739;-56
2022/01/03 07:32:45;;;;;;;39.58;25.05;;;;;;;;;;5016238;28;20731;-56
2022/01/03 07:35:14;;;;;;;40.55;24.55;;;;;;;;;;5023815;28;20175;-57
2022/01/03 07:37:40;;;;;;;33.17;20.33;;;;;;;;;;5015698;28;20259;-56
2022/01/03 07:40:05;;;;;;;30.55;20.05;;;;;;;;;;5017954;28;20565;-56
2022/01/03 07:42:31;;;;;;;28.10;18.20;;;;;;;;;;5018958;28;20178;-56
2022/01/03 07:44:56;;;;;;;34.38;18.65;;;;;;;;;;5019518;28;20175;-55
2022/01/03 07:47:21;;;;;;;32.60;19.55;;;;;;;;;;5017599;28;20520;-55
2022/01/03 07:49:46;;;;;;;37.78;20.58;;;;;;;;;;5013918;28;20202;-56
2022/01/03 07:52:12;;;;;;;32.97;20.08;;;;;;;;;;5020093;28;20174;-57
2022/01/03 07:54:37;;;;;;;41.35;24.55;;;;;;;;;;5016035;28;20710;-55
2022/01/03 07:57:02;;;;;;;46.45;25.42;;;;;;;;;;5018020;28;20209;-56
2022/01/03 07:59:27;;;;;;;44.47;24.88;;;;;;;;;;5019703;28;20185;-56
2022/01/03 08:01:53;;;;;;;48.20;26.77;;;;;;;;;;5017570;28;20186;-57
2022/01/03 08:04:18;;;;;;;51.28;28.70;;;;;;;;;;5019425;28;20182;-56
2022/01/03 08:06:43;;;;;;;55.10;29.58;;;;;;;;;;5014988;28;20620;-55
2022/01/03 08:09:09;;;;;;;47.65;26.48;;;;;;;;;;5012247;28;20213;-56
2022/01/03 08:11:34;;;;;;;48.30;26.42;;;;;;;;;;5023115;28;20178;-56
2022/01/03 08:13:59;;;;;;;59.28;32.75;;;;;;;;;;5007557;28;20270;-56
2022/01/03 08:16:24;;;;;;;55.83;28.25;;;;;;;;;;5023900;28;20210;-56
2022/01/03 08:18:50;;;;;;;50.00;27.05;;;;;;;;;;5015635;28;20181;-56
2022/01/03 08:21:15;;;;;;;53.75;28.52;;;;;;;;;;5021723;28;20182;-57
2022/01/03 08:23:40;;;;;;;55.85;28.38;;;;;;;;;;5017866;28;20263;-55
2022/01/03 08:26:06;;;;;;;49.03;28.77;;;;;;;;;;5019717;28;20167;-55
2022/01/03 08:28:31;;;;;;;53.47;28.65;;;;;;;;;;5007196;28;20187;-56
2022/01/03 08:30:56;;;;;;;52.03;28.67;;;;;;;;;;5016585;28;20213;-58
2022/01/03 08:33:21;;;;;;;45.00;27.27;;;;;;;;;;5012042;28;20648;-56
2022/01/03 08:35:47;;;;;;;51.28;26.05;;;;;;;;;;5011330;28;20206;-56
2022/01/03 08:38:12;;;;;;;44.22;23.73;;;;;;;;;;5011464;28;20206;-56
2022/01/03 08:40:38;;;;;;;49.38;26.40;;;;;;;;;;5027269;28;20633;-57
2022/01/03 08:43:03;;;;;;;49.38;25.92;;;;;;;;;;4998867;28;20653;-56
2022/01/03 08:45:28;;;;;;;64.97;29.60;;;;;;;;;;4998036;28;20965;-56
2022/01/03 08:47:53;;;;;;;55.90;29.92;;;;;;;;;;5005263;28;20245;-57
2022/01/03 08:50:19;;;;;;;60.25;32.67;;;;;;;;;;5013690;28;20190;-56
2022/01/03 08:52:45;;;;;;;60.85;32.97;;;;;;;;;;5015275;28;20179;-56
2022/01/03 08:55:10;;;;;;;75.82;36.60;;;;;;;;;;5021294;28;20667;-57
2022/01/03 08:57:37;;;;;;;75.93;37.28;;;;;;;;;;5011479;28;20186;-55
2022/01/03 09:00:03;;;;;;;75.80;37.28;;;;;;;;;;5017945;28;20908;-56
2022/01/03 09:02:28;;;;;;;77.88;38.85;;;;;;;;;;5021968;28;20179;-56
2022/01/03 09:04:54;;;;;;;80.10;37.88;;;;;;;;;;4998413;28;20308;-56
2022/01/03 09:07:19;;;;;;;70.03;36.55;;;;;;;;;;5017739;28;20627;-56
2022/01/03 09:09:44;;;;;;;79.65;37.53;;;;;;;;;;5018476;28;20198;-56
2022/01/03 09:12:09;;;;;;;75.40;34.03;;;;;;;;;;5022790;28;20178;-57
2022/01/03 09:14:35;;;;;;;79.75;36.20;;;;;;;;;;5011568;28;20237;-56
2022/01/03 09:17:00;;;;;;;76.10;37.13;;;;;;;;;;5014373;28;20277;-57
2022/01/03 09:19:26;;;;;;;74.40;35.92;;;;;;;;;;5011355;28;20592;-57
2022/01/03 09:21:59;;;;;;;78.78;35.72;;;;;;;;;;5012932;28;20175;-57
2022/01/03 09:24:43;;;;;;;64.65;32.13;;;;;;;;;;5002301;28;20274;-55
2022/01/03 09:29:54;;;;;;;55.53;28.88;;;;;;;;;;5017670;28;20260;-55
2022/01/03 09:32:19;;;;;;;53.17;26.83;;;;;;;;;;5019891;28;20198;-56
2022/01/03 09:34:45;;;;;;;55.15;27.10;;;;;;;;;;5016620;28;20265;-56
2022/01/03 09:37:12;;;;;;;52.83;24.98;;;;;;;;;;5018870;28;20643;-56
2022/01/03 09:39:37;;;;;;;47.35;26.05;;;;;;;;;;5015813;28;20264;-56
2022/01/03 09:42:04;;;;;;;72.25;34.30;;;;;;;;;;5022823;28;20718;-56
2022/01/03 09:44:32;;;;;;;55.47;28.85;;;;;;;;;;5023872;28;20269;-56
2022/01/03 09:46:59;;;;;;;51.83;27.50;;;;;;;;;;5015246;28;20182;-57
2022/01/03 09:49:25;;;;;;;64.38;30.70;;;;;;;;;;5016768;28;20792;-56
2022/01/03 09:51:51;;;;;;;75.57;38.08;;;;;;;;;;5018436;28;20868;-56
2022/01/03 09:54:16;;;;;;;71.10;34.22;;;;;;;;;;5016873;28;20701;-56
2022/01/03 09:56:42;;;;;;;67.25;33.53;;;;;;;;;;5021296;28;20659;-57
2022/01/03 09:59:08;;;;;;;60.60;34.03;;;;;;;;;;5012968;28;20265;-56
2022/01/03 10:01:33;;;;;;;54.20;30.25;;;;;;;;;;5025256;28;20663;-57
2022/01/03 10:03:59;;;;;;;61.03;32.78;;;;;;;;;;5026619;28;20601;-56
2022/01/03 10:06:25;;;;;;;62.67;33.95;;;;;;;;;;5021550;28;20663;-56
2022/01/03 10:08:51;;;;;;;61.15;31.77;;;;;;;;;;5015765;28;20252;-55
2022/01/03 10:11:18;;;;;;;59.38;31.48;;;;;;;;;;5017689;28;20182;-56
2022/01/03 10:13:43;;;;;;;59.47;32.40;;;;;;;;;;5014356;28;20187;-57
2022/01/03 10:16:08;;;;;;;56.20;30.98;;;;;;;;;;5022196;28;20561;-57
2022/01/03 10:18:34;;;;;;;58.25;30.48;;;;;;;;;;5011377;28;20255;-56
2022/01/03 10:20:59;;;;;;;64.18;31.95;;;;;;;;;;5018277;28;20182;-57
2022/01/03 10:23:25;;;;;;;59.70;32.03;;;;;;;;;;5015034;28;20631;-56
2022/01/03 10:25:50;;;;;;;62.67;32.47;;;;;;;;;;5016648;28;20174;-57
2022/01/03 10:28:26;;;;;;;61.58;32.03;;;;;;;;;;5016192;28;21107;-56
2022/01/03 10:30:52;;;;;;;59.05;31.85;;;;;;;;;;5015963;28;20534;-57
2022/01/03 10:33:21;;;;;;;61.03;33.60;;;;;;;;;;5018159;28;20733;-56
2022/01/03 10:35:55;;;;;;;52.88;30.98;;;;;;;;;;5017482;28;20217;-57
2022/01/03 10:38:44;;;;;;;51.60;32.10;;;;;;;;;;5026319;28;20252;-56
2022/01/03 10:41:17;;;;;;;49.33;30.50;;;;;;;;;;5026451;28;20248;-57
2022/01/03 10:43:46;;;;;;;49.33;30.88;;;;;;;;;;4998752;28;20274;-57
2022/01/03 10:46:16;;;;;;;54.83;33.40;;;;;;;;;;5013690;28;20198;-57
2022/01/03 10:48:41;;;;;;;60.63;36.53;;;;;;;;;;5006684;28;20203;-56
2022/01/03 10:51:07;;;;;;;55.35;33.33;;;;;;;;;;4995717;28;20166;-56
2022/01/03 10:53:33;;;;;;;55.95;33.17;;;;;;;;;;4997727;28;20284;-56
2022/01/03 10:55:58;;;;;;;51.55;33.13;;;;;;;;;;5014131;28;20207;-56
2022/01/03 10:58:33;;;;;;;73.47;40.88;;;;;;;;;;5015945;28;20237;-56
2022/01/03 11:00:59;;;;;;;78.60;43.42;;;;;;;;;;5023521;28;20224;-57
2022/01/03 11:03:32;;;;;;;70.65;40.40;;;;;;;;;;5017052;28;20179;-57
2022/01/03 11:06:12;;;;;;;72.20;41.63;;;;;;;;;;5025614;28;20179;-57
2022/01/03 11:11:38;;;;;;;69.60;42.95;;;;;;;;;;5018150;28;20295;-57
2022/01/03 11:14:04;;;;;;;61.78;38.72;;;;;;;;;;5020121;28;20190;-57
2022/01/03 11:16:41;;;;;;;69.55;41.70;;;;;;;;;;5020423;28;20184;-56
2022/01/03 11:19:07;;;;;;;66.32;38.28;;;;;;;;;;5022040;28;20182;-57
2022/01/03 11:21:33;;;;;;;81.63;46.15;;;;;;;;;;5014223;28;20266;-57
2022/01/03 11:23:59;;;;;;;73.35;40.30;;;;;;;;;;4997474;28;20281;-56
2022/01/03 11:26:24;;;;;;;54.33;33.95;;;;;;;;;;5016452;28;20261;-57
2022/01/03 11:28:50;;;;;;;63.95;36.78;;;;;;;;;;5021807;28;20309;-56
2022/01/03 11:31:16;;;;;;;61.95;38.38;;;;;;;;;;5007253;28;20376;-56
2022/01/03 11:33:42;;;;;;;67.32;40.55;;;;;;;;;;4999854;28;20179;-58
2022/01/03 11:36:07;;;;;;;66.70;39.83;;;;;;;;;;5004472;28;20186;-56
2022/01/03 11:38:36;;;;;;;70.30;40.13;;;;;;;;;;5016275;28;20179;-56
2022/01/03 11:41:04;;;;;;;70.53;39.65;;;;;;;;;;5014155;28;20175;-57
2022/01/03 11:43:30;;;;;;;59.63;35.83;;;;;;;;;;5022720;28;20206;-57
2022/01/03 11:45:56;;;;;;;62.80;37.28;;;;;;;;;;5021944;28;20237;-57
2022/01/03 11:48:22;;;;;;;59.47;32.83;;;;;;;;;;5024888;28;20175;-57
2022/01/03 11:50:49;;;;;;;79.03;37.72;;;;;;;;;;5023693;28;20177;-58
2022/01/03 11:53:20;;;;;;;73.43;35.20;;;;;;;;;;5017531;28;20989;-57
2022/01/03 11:55:45;;;;;;;68.43;36.40;;;;;;;;;;5018764;28;20229;-56
2022/01/03 11:58:25;;;;;;;64.05;35.78;;;;;;;;;;5022369;28;20652;-56
2022/01/03 12:03:54;;;;;;;59.10;34.67;;;;;;;;;;5007958;28;20201;-56
2022/01/03 12:06:32;;;;;;;51.80;32.95;;;;;;;;;;5021655;28;20240;-57
2022/01/03 12:09:06;;;;;;;49.30;32.33;;;;;;;;;;5013861;28;20209;-57
2022/01/03 12:11:32;;;;;;;60.45;36.17;;;;;;;;;;5025832;28;20194;-57
2022/01/03 12:13:59;;;;;;;63.72;36.03;;;;;;;;;;5018025;28;20709;-56
2022/01/03 12:16:39;;;;;;;65.47;38.33;;;;;;;;;;5018413;28;20184;-56
2022/01/03 12:19:07;;;;;;;59.40;36.72;;;;;;;;;;5020139;28;20630;-55
2022/01/03 12:21:53;;;;;;;64.68;37.83;;;;;;;;;;5027606;28;20178;-58
2022/01/03 12:24:55;;;;;;;70.07;38.78;;;;;;;;;;5012589;28;20556;-57
2022/01/03 12:27:31;;;;;;;103.70;52.63;;;;;;;;;;4958005;28;20342;-57
2022/01/03 12:30:17;;;;;;;89.20;46.25;;;;;;;;;;4986680;28;20262;-57
2022/01/03 12:33:05;;;;;;;71.47;40.55;;;;;;;;;;5025547;28;20298;-57
2022/01/03 12:35:30;;;;;;;75.45;44.83;;;;;;;;;;5017029;28;20186;-56
2022/01/03 12:38:04;;;;;;;71.88;42.00;;;;;;;;;;5017132;28;20267;-57
2022/01/03 12:40:31;;;;;;;67.90;40.22;;;;;;;;;;4999527;28;20193;-57
2022/01/03 12:43:00;;;;;;;71.53;44.63;;;;;;;;;;5015098;28;20195;-56
2022/01/03 12:45:28;;;;;;;73.18;41.58;;;;;;;;;;5016805;28;20193;-56
2022/01/03 12:47:54;;;;;;;72.25;42.33;;;;;;;;;;5014942;28;20689;-56
2022/01/03 12:50:21;;;;;;;67.88;40.75;;;;;;;;;;5018315;28;20194;-56
2022/01/03 12:52:46;;;;;;;74.25;40.75;;;;;;;;;;5009061;28;20760;-56
2022/01/03 12:55:31;;;;;;;70.55;41.75;;;;;;;;;;5021712;28;20269;-56
2022/01/03 12:57:57;;;;;;;66.63;37.70;;;;;;;;;;5017788;28;20186;-57
2022/01/03 13:00:38;;;;;;;69.50;38.15;;;;;;;;;;5021191;28;20682;-56
2022/01/03 13:03:22;;;;;;;76.93;41.78;;;;;;;;;;5014825;28;20265;-56
2022/01/03 13:06:05;;;;;;;77.95;40.55;;;;;;;;;;5025539;28;20643;-57
2022/01/03 13:08:38;;;;;;;71.88;36.88;;;;;;;;;;5020111;28;20652;-58
2022/01/03 13:11:06;;;;;;;59.45;36.40;;;;;;;;;;5006867;28;20191;-57
2022/01/03 13:13:32;;;;;;;61.33;37.03;;;;;;;;;;5016635;28;21025;-57
2022/01/03 13:15:57;;;;;;;68.85;39.67;;;;;;;;;;5022013;28;20210;-57
2022/01/03 13:18:22;;;;;;;61.83;37.65;;;;;;;;;;5017340;28;20196;-57
2022/01/03 13:20:56;;;;;;;64.60;38.33;;;;;;;;;;5019035;28;20182;-56
2022/01/03 13:23:24;;;;;;;69.80;39.03;;;;;;;;;;5025730;28;20276;-56
2022/01/03 13:25:49;;;;;;;75.00;39.38;;;;;;;;;;5011943;28;20635;-56
2022/01/03 13:28:14;;;;;;;108.78;54.55;;;;;;;;;;5012769;28;20262;-56
2022/01/03 13:30:57;;;;;;;79.78;43.13;;;;;;;;;;5013090;28;20240;-57
2022/01/03 13:33:24;;;;;;;82.85;42.10;;;;;;;;;;5015330;28;20187;-56
2022/01/03 13:36:02;;;;;;;67.10;38.33;;;;;;;;;;5022803;28;20664;-56
2022/01/03 13:38:28;;;;;;;66.00;37.58;;;;;;;;;;5016150;28;20969;-57
2022/01/03 13:40:53;;;;;;;64.55;35.83;;;;;;;;;;5017918;28;20182;-56
2022/01/03 13:43:20;;;;;;;63.00;36.05;;;;;;;;;;5020253;28;20617;-56
2022/01/03 13:51:01;;;;;;;70.80;33.88;;;;;;;;;;5011432;28;20232;-56
2022/01/03 13:53:26;;;;;;;59.50;33.47;;;;;;;;;;5017989;28;20199;-56
2022/01/03 13:55:54;;;;;;;55.38;32.47;;;;;;;;;;5009233;28;20178;-56
2022/01/03 13:58:20;;;;;;;79.35;40.75;;;;;;;;;;5018394;28;20182;-56
2022/01/03 14:00:51;;;;;;;78.00;42.70;;;;;;;;;;5016601;28;20178;-56
2022/01/03 14:03:21;;;;;;;62.22;36.67;;;;;;;;;;5018960;28;20170;-56
2022/01/03 14:05:48;;;;;;;67.93;36.97;;;;;;;;;;5016080;28;20166;-56
2022/01/03 14:08:17;;;;;;;74.85;39.17;;;;;;;;;;5001338;28;20195;-56
2022/01/03 14:10:44;;;;;;;70.30;34.88;;;;;;;;;;5007475;28;20194;-57
2022/01/03 14:13:13;;;;;;;72.13;41.05;;;;;;;;;;5011590;28;20183;-56
2022/01/03 14:15:57;;;;;;;62.17;32.67;;;;;;;;;;5011728;28;20671;-56
2022/01/03 14:18:38;;;;;;;54.90;30.67;;;;;;;;;;5008774;28;20250;-56
2022/01/03 14:21:27;;;;;;;59.05;32.97;;;;;;;;;;5015116;28;20182;-56
2022/01/03 14:23:54;;;;;;;51.47;30.48;;;;;;;;;;5006850;28;20264;-56
2022/01/03 14:26:20;;;;;;;53.53;32.22;;;;;;;;;;5015504;28;20174;-56
2022/01/03 14:28:45;;;;;;;60.40;33.58;;;;;;;;;;5021550;28;20290;-56
2022/01/03 14:31:11;;;;;;;74.05;41.45;;;;;;;;;;5011673;28;20273;-56
2022/01/03 14:33:39;;;;;;;77.88;39.47;;;;;;;;;;5011284;28;20213;-56
2022/01/03 14:36:14;;;;;;;84.25;41.20;;;;;;;;;;5022221;28;20186;-56
2022/01/03 14:38:41;;;;;;;71.95;39.13;;;;;;;;;;5001011;28;20606;-56
2022/01/03 14:41:13;;;;;;;67.30;37.53;;;;;;;;;;5001750;28;20270;-56
2022/01/03 14:43:38;;;;;;;114.47;61.97;;;;;;;;;;5020589;28;20182;-56
2022/01/03 14:46:07;;;;;;;78.65;45.30;;;;;;;;;;5023909;28;20189;-57
2022/01/03 14:48:33;;;;;;;71.05;38.50;;;;;;;;;;5013493;28;20209;-57